Time;durP1;ratioP1;P1;durP2;ratioP2;P2;SDS_P1;SDS_P2;PMS_P1;PMS_P2;Temp;Humidity;BMP_temperature;BMP_pressure;BME280_temperature;BME280_humidity;BME280_pressure;Samples;Min_cycle;Max_cycle;Signal;HPM_P1;HPM_P2
2022/12/14 00:01:07;;;;;;;31.40;22.70;;;;;;;;;;5099684;28;20378;-87
2022/12/14 00:03:33;;;;;;;33.03;23.15;;;;;;;;;;5099408;28;20405;-87
2022/12/14 00:05:59;;;;;;;31.08;23.27;;;;;;;;;;5110735;28;20376;-84
2022/12/14 00:08:25;;;;;;;30.33;22.40;;;;;;;;;;5112491;28;20400;-86
2022/12/14 00:10:51;;;;;;;29.70;21.77;;;;;;;;;;5112398;28;20402;-86
2022/12/14 00:13:18;;;;;;;28.37;22.60;;;;;;;;;;5112376;28;20407;-86
2022/12/14 00:15:43;;;;;;;29.30;21.88;;;;;;;;;;5112265;28;20734;-86
2022/12/14 00:18:10;;;;;;;31.80;22.27;;;;;;;;;;5112382;28;20389;-86
2022/12/14 00:20:36;;;;;;;29.65;22.63;;;;;;;;;;5105021;28;20404;-87
2022/12/14 00:23:03;;;;;;;29.48;22.30;;;;;;;;;;5110649;28;20761;-86
2022/12/14 00:25:29;;;;;;;29.48;21.83;;;;;;;;;;5112316;28;20426;-87
2022/12/14 00:27:55;;;;;;;28.92;22.20;;;;;;;;;;5112013;28;20405;-84
2022/12/14 00:30:21;;;;;;;31.63;22.55;;;;;;;;;;5106437;28;20397;-84
2022/12/14 00:32:47;;;;;;;30.08;22.90;;;;;;;;;;5106564;28;20383;-85
2022/12/14 00:35:16;;;;;;;29.30;22.60;;;;;;;;;;5112204;28;20457;-84
2022/12/14 00:37:42;;;;;;;29.50;21.70;;;;;;;;;;5112116;28;20389;-84
2022/12/14 00:40:09;;;;;;;29.55;22.65;;;;;;;;;;5111955;28;20372;-85
2022/12/14 00:42:35;;;;;;;32.30;23.17;;;;;;;;;;5112048;28;20412;-85
2022/12/14 00:45:02;;;;;;;28.55;21.90;;;;;;;;;;5107029;28;20394;-85
2022/12/14 00:47:28;;;;;;;28.67;22.38;;;;;;;;;;5088432;28;20471;-85
2022/12/14 00:49:54;;;;;;;31.90;22.67;;;;;;;;;;5104984;28;20408;-85
2022/12/14 00:52:20;;;;;;;29.88;22.80;;;;;;;;;;5097767;28;20437;-86
2022/12/14 00:54:46;;;;;;;28.93;23.03;;;;;;;;;;5097907;28;20380;-84
2022/12/14 00:57:12;;;;;;;30.48;23.55;;;;;;;;;;5116072;28;20376;-85
2022/12/14 00:59:38;;;;;;;29.02;22.75;;;;;;;;;;5097844;28;20396;-84
2022/12/14 01:02:04;;;;;;;31.20;22.90;;;;;;;;;;5109720;28;20380;-84
2022/12/14 01:04:30;;;;;;;33.25;23.90;;;;;;;;;;5090577;28;21220;-84
2022/12/14 01:06:56;;;;;;;30.73;23.42;;;;;;;;;;5107560;28;20380;-84
2022/12/14 01:09:24;;;;;;;36.33;23.85;;;;;;;;;;5115583;28;20449;-85
2022/12/14 01:11:50;;;;;;;31.33;22.80;;;;;;;;;;5115718;28;20368;-84
2022/12/14 01:14:17;;;;;;;30.60;23.85;;;;;;;;;;5115718;28;20844;-84
2022/12/14 01:16:43;;;;;;;32.03;24.05;;;;;;;;;;5104914;28;20419;-84
2022/12/14 01:19:10;;;;;;;29.50;22.98;;;;;;;;;;5081533;28;20747;-84
2022/12/14 01:21:36;;;;;;;30.38;22.17;;;;;;;;;;5094916;28;20886;-85
2022/12/14 01:24:03;;;;;;;32.42;22.88;;;;;;;;;;5107911;28;20384;-85
2022/12/14 01:26:30;;;;;;;29.50;22.77;;;;;;;;;;5115429;28;20380;-85
2022/12/14 01:28:57;;;;;;;31.27;23.58;;;;;;;;;;5115143;28;20420;-85
2022/12/14 01:31:30;;;;;;;30.98;22.60;;;;;;;;;;5103908;28;20433;-85
2022/12/14 01:33:57;;;;;;;33.88;24.27;;;;;;;;;;5115147;28;20384;-85
2022/12/14 01:36:25;;;;;;;30.13;23.00;;;;;;;;;;5115250;28;20404;-85
2022/12/14 01:38:52;;;;;;;32.22;24.33;;;;;;;;;;5097042;28;20423;-85
2022/12/14 01:41:24;;;;;;;31.58;23.27;;;;;;;;;;5105966;28;20416;-85
2022/12/14 01:43:50;;;;;;;32.42;24.02;;;;;;;;;;5098322;28;20379;-85
2022/12/14 01:46:30;;;;;;;30.33;22.50;;;;;;;;;;5115164;28;20456;-84
2022/12/14 01:49:00;;;;;;;30.02;23.27;;;;;;;;;;5114621;28;20785;-85
2022/12/14 01:51:26;;;;;;;30.45;23.35;;;;;;;;;;5114976;28;20372;-85
2022/12/14 01:53:53;;;;;;;29.85;23.02;;;;;;;;;;5114921;28;20369;-85
2022/12/14 01:56:19;;;;;;;29.75;23.52;;;;;;;;;;5114884;28;20368;-86
2022/12/14 01:58:45;;;;;;;31.98;23.30;;;;;;;;;;5114825;28;20387;-85
2022/12/14 02:01:11;;;;;;;31.13;24.08;;;;;;;;;;5089717;28;20381;-85
2022/12/14 02:03:41;;;;;;;33.15;24.13;;;;;;;;;;5096585;28;20388;-86
2022/12/14 02:06:13;;;;;;;34.75;25.05;;;;;;;;;;5096271;28;20385;-85
2022/12/14 02:08:42;;;;;;;33.70;24.03;;;;;;;;;;5102790;28;20428;-85
2022/12/14 02:11:08;;;;;;;32.00;23.73;;;;;;;;;;5112829;28;20875;-85
2022/12/14 02:13:36;;;;;;;31.50;23.77;;;;;;;;;;5114658;28;20841;-85
2022/12/14 02:16:02;;;;;;;30.65;23.42;;;;;;;;;;5114549;28;20376;-85
2022/12/14 02:18:29;;;;;;;34.53;24.20;;;;;;;;;;5093920;28;20396;-85
2022/12/14 02:21:01;;;;;;;30.58;23.55;;;;;;;;;;5094173;28;20419;-85
2022/12/14 02:23:45;;;;;;;31.98;24.80;;;;;;;;;;5102103;28;20374;-85
2022/12/14 02:26:30;;;;;;;34.03;24.63;;;;;;;;;;5110216;28;20369;-85
2022/12/14 02:29:14;;;;;;;32.42;25.13;;;;;;;;;;5114016;28;20459;-85
2022/12/14 02:31:46;;;;;;;29.73;23.95;;;;;;;;;;5114197;28;20365;-85
2022/12/14 02:34:23;;;;;;;30.55;24.58;;;;;;;;;;5101793;28;20381;-85
2022/12/14 02:36:59;;;;;;;32.90;24.77;;;;;;;;;;5073673;28;20455;-85
2022/12/14 02:39:36;;;;;;;30.00;23.45;;;;;;;;;;5087448;28;20402;-85
2022/12/14 02:42:09;;;;;;;31.02;23.80;;;;;;;;;;5117706;28;20449;-86
2022/12/14 02:44:49;;;;;;;33.35;24.48;;;;;;;;;;5112677;28;20378;-84
2022/12/14 02:47:23;;;;;;;33.58;24.95;;;;;;;;;;5126441;28;20377;-85
2022/12/14 02:49:52;;;;;;;31.83;24.73;;;;;;;;;;5134909;28;20392;-85
2022/12/14 02:52:20;;;;;;;31.98;24.20;;;;;;;;;;5125960;28;20364;-85
2022/12/14 02:54:52;;;;;;;30.63;23.80;;;;;;;;;;5087229;28;20469;-85
2022/12/14 02:57:25;;;;;;;31.88;24.60;;;;;;;;;;5097017;28;20495;-86
2022/12/14 02:59:53;;;;;;;30.20;23.42;;;;;;;;;;5112652;28;20445;-85
2022/12/14 03:02:19;;;;;;;35.80;24.85;;;;;;;;;;5109708;28;20372;-85
2022/12/14 03:04:48;;;;;;;32.63;24.10;;;;;;;;;;5113781;28;20451;-85
2022/12/14 03:07:26;;;;;;;33.58;25.30;;;;;;;;;;5113705;28;20368;-85
2022/12/14 03:09:52;;;;;;;33.67;24.90;;;;;;;;;;5113477;28;20858;-86
2022/12/14 03:12:21;;;;;;;34.38;25.92;;;;;;;;;;5112662;28;20433;-85
2022/12/14 03:14:50;;;;;;;33.03;24.83;;;;;;;;;;5113497;28;20453;-86
2022/12/14 03:17:17;;;;;;;33.00;25.17;;;;;;;;;;5099691;28;20385;-86
2022/12/14 03:19:50;;;;;;;30.13;23.73;;;;;;;;;;5094169;28;20389;-86
2022/12/14 03:22:28;;;;;;;32.17;24.58;;;;;;;;;;5090782;28;20373;-86
2022/12/14 03:25:00;;;;;;;33.22;25.27;;;;;;;;;;5091772;28;20362;-86
2022/12/14 03:27:35;;;;;;;32.05;24.98;;;;;;;;;;5066296;28;20433;-87
2022/12/14 03:30:12;;;;;;;33.17;25.60;;;;;;;;;;5071187;28;20406;-87
2022/12/14 03:32:40;;;;;;;33.93;25.13;;;;;;;;;;5073096;28;20501;-86
2022/12/14 03:35:13;;;;;;;33.58;26.02;;;;;;;;;;5073426;28;20384;-87
2022/12/14 03:37:41;;;;;;;33.80;25.40;;;;;;;;;;5070838;28;20450;-86
2022/12/14 03:40:09;;;;;;;31.38;24.70;;;;;;;;;;5071803;28;20505;-86
2022/12/14 03:42:47;;;;;;;35.33;25.73;;;;;;;;;;5073966;28;20599;-86
2022/12/14 03:45:20;;;;;;;34.28;25.33;;;;;;;;;;5071911;28;20371;-87
2022/12/14 03:48:01;;;;;;;36.08;26.40;;;;;;;;;;5069315;28;20404;-87
2022/12/14 03:50:32;;;;;;;35.40;25.98;;;;;;;;;;5072338;28;20849;-86
2022/12/14 03:53:05;;;;;;;35.70;26.48;;;;;;;;;;5071038;28;20386;-86
2022/12/14 03:55:54;;;;;;;33.72;25.63;;;;;;;;;;5066928;28;20394;-87
2022/12/14 03:58:25;;;;;;;33.92;25.92;;;;;;;;;;5072775;28;20428;-87
2022/12/14 04:00:57;;;;;;;34.80;26.55;;;;;;;;;;5073375;28;20931;-86
2022/12/14 04:03:23;;;;;;;36.47;26.73;;;;;;;;;;5054490;28;20385;-86
2022/12/14 04:05:52;;;;;;;35.90;27.05;;;;;;;;;;5051995;28;20415;-85
2022/12/14 04:08:30;;;;;;;35.17;26.50;;;;;;;;;;5064880;28;20411;-87
2022/12/14 04:19:40;;;;;;;37.78;28.63;;;;;;;;;;5079877;28;20381;-86
2022/12/14 04:22:11;;;;;;;36.13;27.27;;;;;;;;;;5081962;28;20455;-86
2022/12/14 04:27:39;;;;;;;36.83;28.40;;;;;;;;;;5080055;28;20437;-85
2022/12/14 04:30:08;;;;;;;36.45;27.73;;;;;;;;;;5076095;28;20378;-85
2022/12/14 04:32:58;;;;;;;34.88;26.92;;;;;;;;;;5102482;28;20898;-85
2022/12/14 04:35:24;;;;;;;35.40;27.40;;;;;;;;;;5105387;28;20372;-86
2022/12/14 04:37:52;;;;;;;33.63;27.13;;;;;;;;;;5091531;28;20402;-86
2022/12/14 04:40:20;;;;;;;36.00;27.70;;;;;;;;;;5076462;28;20385;-85
2022/12/14 04:42:51;;;;;;;32.97;25.67;;;;;;;;;;5095950;28;20370;-86
2022/12/14 04:45:21;;;;;;;36.05;26.70;;;;;;;;;;5082849;28;20728;-86
2022/12/14 04:48:03;;;;;;;35.22;26.95;;;;;;;;;;5107707;28;20400;-86
2022/12/14 04:50:35;;;;;;;34.08;26.75;;;;;;;;;;5064735;28;20464;-86
2022/12/14 04:53:05;;;;;;;34.20;25.57;;;;;;;;;;5074502;28;20880;-86
2022/12/14 04:56:00;;;;;;;34.78;26.70;;;;;;;;;;5082187;28;20794;-86
2022/12/14 04:58:28;;;;;;;33.03;26.05;;;;;;;;;;5070219;28;20879;-85
2022/12/14 05:00:53;;;;;;;36.50;27.07;;;;;;;;;;5070050;28;20756;-86
2022/12/14 05:03:23;;;;;;;36.50;26.83;;;;;;;;;;5088665;28;20465;-86
2022/12/14 05:05:52;;;;;;;34.47;26.05;;;;;;;;;;5087783;28;20394;-86
2022/12/14 05:08:24;;;;;;;34.03;25.95;;;;;;;;;;5097095;28;20407;-86
2022/12/14 05:10:53;;;;;;;34.90;26.75;;;;;;;;;;5102865;28;20456;-87
2022/12/14 05:13:25;;;;;;;34.28;26.42;;;;;;;;;;5091250;28;20388;-85
2022/12/14 05:15:53;;;;;;;37.17;27.60;;;;;;;;;;5097634;28;20409;-86
2022/12/14 05:18:19;;;;;;;35.80;26.20;;;;;;;;;;5096990;28;20399;-86
2022/12/14 05:20:46;;;;;;;34.17;26.55;;;;;;;;;;5091407;28;20386;-86
2022/12/14 05:23:12;;;;;;;35.38;26.48;;;;;;;;;;5107496;28;20379;-86
2022/12/14 05:25:38;;;;;;;35.00;26.33;;;;;;;;;;5110314;28;20384;-86
2022/12/14 05:28:04;;;;;;;37.40;27.50;;;;;;;;;;5096242;28;20412;-86
2022/12/14 05:30:30;;;;;;;34.35;26.30;;;;;;;;;;5093526;28;20567;-85
2022/12/14 05:32:57;;;;;;;34.20;26.38;;;;;;;;;;5092468;28;20382;-86
2022/12/14 05:35:23;;;;;;;31.35;26.10;;;;;;;;;;5097314;28;20513;-86
2022/12/14 05:37:49;;;;;;;34.13;25.25;;;;;;;;;;5110623;28;20404;-86
2022/12/14 05:40:15;;;;;;;33.25;25.77;;;;;;;;;;5097541;28;20396;-86
2022/12/14 05:42:41;;;;;;;32.55;25.65;;;;;;;;;;5100874;28;20384;-85
2022/12/14 05:45:08;;;;;;;34.10;25.73;;;;;;;;;;5111375;28;20732;-85
2022/12/14 05:47:34;;;;;;;35.40;26.77;;;;;;;;;;5110269;28;20382;-85
2022/12/14 05:50:00;;;;;;;34.38;26.63;;;;;;;;;;5098430;28;20714;-86
2022/12/14 05:52:26;;;;;;;31.67;25.67;;;;;;;;;;5105930;28;20372;-84
2022/12/14 05:54:52;;;;;;;34.50;25.88;;;;;;;;;;5110035;28;20879;-84
2022/12/14 05:57:18;;;;;;;33.50;26.50;;;;;;;;;;5101571;28;20405;-86
2022/12/14 05:59:47;;;;;;;33.53;26.00;;;;;;;;;;5097031;28;20388;-86
2022/12/14 06:02:13;;;;;;;35.35;26.90;;;;;;;;;;5101425;28;20405;-86
2022/12/14 06:04:40;;;;;;;33.80;25.88;;;;;;;;;;5088982;28;20810;-85
2022/12/14 06:07:08;;;;;;;33.67;25.98;;;;;;;;;;5088688;28;20405;-86
2022/12/14 06:09:34;;;;;;;34.10;26.27;;;;;;;;;;5099416;28;20409;-86
2022/12/14 06:12:00;;;;;;;34.63;26.40;;;;;;;;;;5101353;28;20378;-86
2022/12/14 06:14:26;;;;;;;33.40;25.77;;;;;;;;;;5102432;28;20365;-86
2022/12/14 06:16:52;;;;;;;33.35;26.15;;;;;;;;;;5124573;28;20408;-87
2022/12/14 06:19:19;;;;;;;36.20;27.10;;;;;;;;;;5106837;28;20395;-87
2022/12/14 06:21:48;;;;;;;35.03;27.13;;;;;;;;;;5092271;28;20456;-87
2022/12/14 06:24:14;;;;;;;38.38;30.23;;;;;;;;;;5077429;28;20398;-85
2022/12/14 06:26:40;;;;;;;37.47;28.83;;;;;;;;;;5065548;28;20948;-85
2022/12/14 06:29:07;;;;;;;38.25;28.33;;;;;;;;;;5081149;28;20420;-85
2022/12/14 06:31:33;;;;;;;36.27;27.30;;;;;;;;;;5092199;28;20393;-85
2022/12/14 06:34:01;;;;;;;36.90;28.05;;;;;;;;;;5101501;28;20483;-85
2022/12/14 06:36:31;;;;;;;35.53;27.23;;;;;;;;;;5078646;28;20382;-85
2022/12/14 06:39:00;;;;;;;37.92;27.50;;;;;;;;;;5090156;28;20397;-87
2022/12/14 06:41:25;;;;;;;34.53;26.42;;;;;;;;;;5077558;28;20436;-87
2022/12/14 06:43:52;;;;;;;37.03;28.23;;;;;;;;;;5079432;28;20390;-88
2022/12/14 06:46:20;;;;;;;34.83;27.20;;;;;;;;;;5093113;28;20382;-87
2022/12/14 06:48:54;;;;;;;39.30;27.27;;;;;;;;;;5092673;28;20412;-88
2022/12/14 06:51:20;;;;;;;38.08;27.98;;;;;;;;;;5090622;28;20453;-87
2022/12/14 06:53:50;;;;;;;36.95;27.98;;;;;;;;;;5094437;28;20366;-86
2022/12/14 06:56:17;;;;;;;37.50;27.58;;;;;;;;;;5092889;28;20374;-87
2022/12/14 06:58:43;;;;;;;35.75;27.83;;;;;;;;;;5093245;28;20735;-91
2022/12/14 07:01:12;;;;;;;36.13;27.65;;;;;;;;;;5071581;28;20382;-90
2022/12/14 07:03:38;;;;;;;37.40;27.30;;;;;;;;;;5074681;28;20414;-91
2022/12/14 07:06:05;;;;;;;36.53;27.67;;;;;;;;;;5093823;28;20391;-91
2022/12/14 07:08:33;;;;;;;36.10;27.30;;;;;;;;;;5086936;28;20408;-91
2022/12/14 07:11:03;;;;;;;37.67;27.77;;;;;;;;;;5078826;28;20398;-92
2022/12/14 07:13:29;;;;;;;36.97;28.10;;;;;;;;;;5092557;28;20882;-92
2022/12/14 07:15:56;;;;;;;35.42;28.00;;;;;;;;;;5092628;28;20378;-92
2022/12/14 07:18:22;;;;;;;35.58;28.45;;;;;;;;;;5093113;28;20397;-92
2022/12/14 07:21:23;;;;;;;;;;;;;;;;;;;;;
2022/12/14 07:24:12;;;;;;;38.38;27.98;;;;;;;;;;5069630;28;20750;-92
2022/12/14 07:26:49;;;;;;;37.30;27.77;;;;;;;;;;5067760;28;20429;-91
2022/12/14 07:29:32;;;;;;;35.55;27.23;;;;;;;;;;5068428;28;20403;-92
2022/12/14 07:32:05;;;;;;;34.20;27.07;;;;;;;;;;5063479;28;20878;-91
2022/12/14 07:34:37;;;;;;;37.13;28.30;;;;;;;;;;5066340;28;20417;-90
2022/12/14 07:37:03;;;;;;;36.50;29.10;;;;;;;;;;5064948;28;20439;-91
2022/12/14 07:39:29;;;;;;;47.92;33.00;;;;;;;;;;5052461;28;20374;-90
2022/12/14 07:42:29;;;;;;;;;;;;;;;;;;;;;
2022/12/14 07:44:44;;;;;;;39.77;28.53;;;;;;;;;;5047413;28;20388;-90
2022/12/14 07:47:10;;;;;;;39.63;28.70;;;;;;;;;;5052330;28;20374;-90
2022/12/14 07:49:36;;;;;;;39.30;28.57;;;;;;;;;;5051734;28;20455;-90
2022/12/14 07:52:02;;;;;;;38.30;28.45;;;;;;;;;;5061627;28;20399;-92
2022/12/14 07:54:41;;;;;;;36.90;28.10;;;;;;;;;;5065888;28;20470;-91
2022/12/14 07:57:07;;;;;;;37.22;28.88;;;;;;;;;;5071109;28;20367;-90
2022/12/14 07:59:33;;;;;;;39.88;29.02;;;;;;;;;;5051045;28;20985;-89
2022/12/14 08:01:59;;;;;;;40.00;29.60;;;;;;;;;;5052281;28;20381;-88
2022/12/14 08:04:25;;;;;;;40.78;30.08;;;;;;;;;;5053357;28;20465;-90
2022/12/14 08:06:51;;;;;;;39.77;29.60;;;;;;;;;;5060811;28;20937;-90
2022/12/14 08:09:18;;;;;;;39.20;30.23;;;;;;;;;;5051813;28;20409;-90
2022/12/14 08:11:45;;;;;;;38.88;29.23;;;;;;;;;;5051933;28;20384;-89
2022/12/14 08:14:18;;;;;;;38.15;28.92;;;;;;;;;;5051725;28;20889;-90
2022/12/14 08:16:44;;;;;;;41.47;30.38;;;;;;;;;;5057466;28;20388;-88
2022/12/14 08:19:11;;;;;;;39.55;30.13;;;;;;;;;;5057213;28;20556;-91
2022/12/14 08:21:37;;;;;;;38.65;29.67;;;;;;;;;;5057737;28;20482;-90
2022/12/14 08:24:03;;;;;;;39.97;29.92;;;;;;;;;;5071759;28;20376;-90
2022/12/14 08:26:29;;;;;;;41.30;30.60;;;;;;;;;;5051771;28;21018;-90
2022/12/14 08:28:56;;;;;;;42.30;30.77;;;;;;;;;;5051542;28;20404;-90
2022/12/14 08:31:23;;;;;;;40.65;30.77;;;;;;;;;;5057031;28;20373;-91
2022/12/14 08:33:49;;;;;;;40.15;29.55;;;;;;;;;;5064502;28;20446;-89
2022/12/14 08:36:17;;;;;;;40.97;30.55;;;;;;;;;;5052639;28;20481;-92
2022/12/14 08:38:44;;;;;;;44.30;31.53;;;;;;;;;;5058529;28;20393;-91
2022/12/14 08:41:11;;;;;;;44.20;32.45;;;;;;;;;;5051251;28;20381;-92
2022/12/14 08:43:38;;;;;;;42.92;31.23;;;;;;;;;;5050984;28;20424;-91
2022/12/14 08:46:04;;;;;;;41.10;31.05;;;;;;;;;;5045329;28;20403;-90
2022/12/14 08:48:30;;;;;;;41.83;31.40;;;;;;;;;;5060687;28;20405;-91
2022/12/14 08:51:02;;;;;;;42.30;32.10;;;;;;;;;;5063817;28;20372;-91
2022/12/14 08:53:28;;;;;;;43.92;32.88;;;;;;;;;;5064692;28;20383;-90
2022/12/14 08:55:54;;;;;;;43.83;32.05;;;;;;;;;;5064238;28;20521;-91
2022/12/14 08:58:20;;;;;;;43.42;32.35;;;;;;;;;;5060820;28;21003;-92
2022/12/14 09:00:47;;;;;;;40.05;30.95;;;;;;;;;;5061376;28;20481;-91
2022/12/14 09:03:13;;;;;;;42.22;31.17;;;;;;;;;;5071351;28;20395;-92
2022/12/14 09:05:39;;;;;;;41.72;31.65;;;;;;;;;;5056321;28;20381;-91
2022/12/14 09:08:05;;;;;;;43.73;31.90;;;;;;;;;;5052917;28;20511;-91
2022/12/14 09:10:31;;;;;;;43.90;32.28;;;;;;;;;;5052459;28;20384;-90
2022/12/14 09:12:57;;;;;;;43.90;32.28;;;;;;;;;;5054785;28;20378;-90
2022/12/14 09:15:24;;;;;;;44.05;32.30;;;;;;;;;;5058452;28;20911;-91
2022/12/14 09:17:50;;;;;;;43.70;31.75;;;;;;;;;;5066076;28;20381;-90
2022/12/14 09:20:17;;;;;;;41.22;30.42;;;;;;;;;;5049528;28;20375;-89
2022/12/14 09:22:43;;;;;;;42.65;31.35;;;;;;;;;;5040324;28;20442;-93
2022/12/14 09:25:10;;;;;;;41.22;31.58;;;;;;;;;;5056193;28;20750;-92
2022/12/14 09:27:36;;;;;;;46.45;34.40;;;;;;;;;;5055061;28;20381;-93
2022/12/14 09:30:02;;;;;;;46.85;33.72;;;;;;;;;;5047312;28;20865;-91
2022/12/14 09:32:28;;;;;;;46.07;34.53;;;;;;;;;;5068401;28;20375;-89
2022/12/14 09:34:54;;;;;;;48.90;35.37;;;;;;;;;;5079539;28;20412;-89
2022/12/14 09:37:20;;;;;;;45.60;34.22;;;;;;;;;;5084817;28;20406;-90
2022/12/14 09:39:46;;;;;;;46.53;34.33;;;;;;;;;;5087837;28;20381;-91
2022/12/14 09:42:12;;;;;;;45.63;33.35;;;;;;;;;;5075259;28;20419;-91
2022/12/14 09:44:38;;;;;;;47.83;34.10;;;;;;;;;;5059242;28;20896;-93
2022/12/14 09:47:04;;;;;;;55.35;39.95;;;;;;;;;;5074619;28;20384;-92
2022/12/14 09:49:31;;;;;;;51.50;36.92;;;;;;;;;;5070409;28;20404;-92
2022/12/14 09:52:03;;;;;;;49.37;35.53;;;;;;;;;;5060037;28;20451;-92
2022/12/14 09:54:32;;;;;;;50.40;35.85;;;;;;;;;;5063510;28;20431;-91
2022/12/14 09:57:00;;;;;;;46.65;34.65;;;;;;;;;;5055338;28;20901;-89
2022/12/14 09:59:28;;;;;;;47.30;35.55;;;;;;;;;;5060469;28;20798;-88
2022/12/14 10:01:54;;;;;;;45.13;33.92;;;;;;;;;;5061820;28;20793;-88
2022/12/14 10:04:42;;;;;;;45.23;33.93;;;;;;;;;;5064610;28;20373;-88
2022/12/14 10:07:13;;;;;;;46.63;34.67;;;;;;;;;;5071084;28;20379;-89
2022/12/14 10:09:42;;;;;;;44.92;33.83;;;;;;;;;;5053079;28;20408;-88
2022/12/14 10:12:23;;;;;;;46.90;35.60;;;;;;;;;;5054272;28;20397;-89
2022/12/14 10:15:02;;;;;;;42.75;33.08;;;;;;;;;;5053921;28;25203;-87
2022/12/14 10:17:29;;;;;;;43.60;33.28;;;;;;;;;;5069523;28;20392;-87
2022/12/14 10:19:58;;;;;;;42.07;32.57;;;;;;;;;;5070149;28;20373;-88
2022/12/14 10:22:30;;;;;;;44.45;33.47;;;;;;;;;;5071219;28;20414;-90
2022/12/14 10:24:56;;;;;;;44.28;33.90;;;;;;;;;;5062978;28;20411;-88
2022/12/14 10:27:26;;;;;;;51.05;35.45;;;;;;;;;;5060518;28;20394;-88
2022/12/14 10:30:00;;;;;;;50.22;36.53;;;;;;;;;;5064992;28;20786;-90
2022/12/14 10:32:31;;;;;;;50.70;37.25;;;;;;;;;;5070572;28;20883;-91
2022/12/14 10:34:58;;;;;;;46.47;35.35;;;;;;;;;;5067243;28;20387;-90
2022/12/14 10:37:35;;;;;;;47.05;35.53;;;;;;;;;;5066435;28;20471;-90
2022/12/14 10:40:01;;;;;;;47.17;35.33;;;;;;;;;;5047584;28;20381;-89
2022/12/14 10:42:36;;;;;;;51.30;36.80;;;;;;;;;;5059086;28;20740;-90
2022/12/14 10:45:24;;;;;;;44.90;34.35;;;;;;;;;;5058527;28;20436;-91
2022/12/14 10:48:10;;;;;;;46.58;35.15;;;;;;;;;;5063488;28;20813;-90
2022/12/14 10:50:55;;;;;;;45.50;35.25;;;;;;;;;;5055098;28;20777;-91
2022/12/14 10:53:26;;;;;;;45.85;35.33;;;;;;;;;;5062122;28;20742;-92
2022/12/14 10:55:53;;;;;;;45.63;34.17;;;;;;;;;;5076265;28;20380;-91
2022/12/14 10:58:19;;;;;;;43.63;33.35;;;;;;;;;;5073361;28;20457;-91
2022/12/14 11:00:45;;;;;;;44.78;33.90;;;;;;;;;;5070660;28;20433;-92
2022/12/14 11:03:15;;;;;;;44.70;33.50;;;;;;;;;;5070851;28;20386;-90
2022/12/14 11:05:46;;;;;;;43.03;34.00;;;;;;;;;;5069273;28;20949;-91
2022/12/14 11:08:32;;;;;;;42.63;33.83;;;;;;;;;;5070556;28;20399;-90
2022/12/14 11:11:07;;;;;;;46.33;34.70;;;;;;;;;;5066206;28;20431;-91
2022/12/14 11:13:33;;;;;;;50.38;36.30;;;;;;;;;;5072804;28;20380;-91
2022/12/14 11:16:14;;;;;;;50.55;35.95;;;;;;;;;;5065682;28;20385;-92
2022/12/14 11:18:40;;;;;;;51.25;37.85;;;;;;;;;;5063721;28;20375;-91
2022/12/14 11:21:06;;;;;;;49.38;36.33;;;;;;;;;;5054336;28;20413;-90
2022/12/14 11:23:36;;;;;;;46.70;35.88;;;;;;;;;;5051937;28;20882;-90
2022/12/14 11:26:04;;;;;;;52.70;39.13;;;;;;;;;;5045242;28;20482;-89
2022/12/14 11:28:33;;;;;;;48.55;35.60;;;;;;;;;;5050283;28;20412;-88
2022/12/14 11:31:11;;;;;;;52.70;37.53;;;;;;;;;;5052414;28;20846;-91
2022/12/14 11:33:44;;;;;;;46.90;36.03;;;;;;;;;;5050410;28;20377;-89
2022/12/14 11:36:22;;;;;;;49.42;36.60;;;;;;;;;;5055569;28;20381;-90
2022/12/14 11:38:58;;;;;;;52.28;40.60;;;;;;;;;;5051459;28;20393;-91
2022/12/14 11:41:24;;;;;;;48.05;37.92;;;;;;;;;;5052506;28;20447;-90
2022/12/14 11:44:01;;;;;;;46.90;36.47;;;;;;;;;;5052323;28;20414;-91
2022/12/14 11:46:41;;;;;;;42.60;32.10;;;;;;;;;;5052337;28;20399;-91
2022/12/14 11:49:18;;;;;;;42.50;32.47;;;;;;;;;;5056036;28;20499;-90
2022/12/14 11:52:01;;;;;;;43.25;32.90;;;;;;;;;;5068073;28;20376;-91
2022/12/14 11:54:28;;;;;;;47.10;34.17;;;;;;;;;;5052398;28;20373;-91
2022/12/14 11:57:02;;;;;;;43.70;32.60;;;;;;;;;;5052149;28;20373;-90
2022/12/14 11:59:32;;;;;;;44.47;32.90;;;;;;;;;;5070435;28;20781;-92
2022/12/14 12:02:07;;;;;;;45.38;34.65;;;;;;;;;;5061380;28;20768;-91
2022/12/14 12:04:39;;;;;;;42.90;32.88;;;;;;;;;;5043137;28;20860;-91
2022/12/14 12:07:22;;;;;;;43.90;33.55;;;;;;;;;;5042081;28;20877;-91
2022/12/14 12:09:48;;;;;;;42.10;33.22;;;;;;;;;;5046917;28;20428;-92
2022/12/14 12:12:16;;;;;;;43.60;32.80;;;;;;;;;;5064729;28;20380;-92
2022/12/14 12:14:46;;;;;;;44.10;33.47;;;;;;;;;;5066550;28;20374;-92
2022/12/14 12:17:19;;;;;;;47.60;34.65;;;;;;;;;;5061131;28;20927;-91
2022/12/14 12:19:46;;;;;;;51.00;37.77;;;;;;;;;;5063592;28;20743;-90
2022/12/14 12:22:13;;;;;;;50.50;36.83;;;;;;;;;;5067633;28;20412;-90
2022/12/14 12:24:44;;;;;;;55.78;38.92;;;;;;;;;;5065786;28;20385;-90
2022/12/14 12:27:12;;;;;;;47.80;35.55;;;;;;;;;;5068543;28;20380;-90
2022/12/14 12:29:44;;;;;;;47.45;35.75;;;;;;;;;;5060373;28;20829;-89
2022/12/14 12:32:29;;;;;;;45.83;35.37;;;;;;;;;;5052682;28;20398;-89
2022/12/14 12:34:57;;;;;;;49.65;36.50;;;;;;;;;;5056758;28;20384;-91
2022/12/14 12:37:31;;;;;;;55.65;38.95;;;;;;;;;;5052023;28;21695;-92
2022/12/14 12:43:29;;;;;;;62.45;40.38;;;;;;;;;;5157294;22;20439;-90
2022/12/14 12:46:15;;;;;;;57.70;41.97;;;;;;;;;;4982251;28;20425;-91
2022/12/14 12:49:07;;;;;;;53.50;39.85;;;;;;;;;;5064832;28;20434;-91
2022/12/14 12:51:45;;;;;;;51.35;38.08;;;;;;;;;;5030028;28;20407;-91
2022/12/14 12:54:19;;;;;;;46.53;36.30;;;;;;;;;;5054650;28;20389;-91
2022/12/14 12:56:47;;;;;;;53.22;38.95;;;;;;;;;;5034956;28;20471;-93
2022/12/14 13:05:43;;;;;;;49.60;37.03;;;;;;;;;;5032067;28;20404;-92
2022/12/14 13:08:33;;;;;;;;;;;;;;;;;;;;;
2022/12/14 14:12:43;;;;;;;58.25;41.05;;;;;;;;;;5057061;28;20405;-92
2022/12/14 14:15:23;;;;;;;58.42;39.78;;;;;;;;;;5043261;28;20447;-90
2022/12/14 14:17:55;;;;;;;54.07;38.70;;;;;;;;;;5068273;28;20403;-90
2022/12/14 14:23:27;;;;;;;64.82;42.55;;;;;;;;;;5064105;28;20421;-91
2022/12/14 14:26:12;;;;;;;63.83;42.58;;;;;;;;;;5087897;28;20382;-89
2022/12/14 14:28:40;;;;;;;65.68;42.22;;;;;;;;;;5061977;28;20457;-91
2022/12/14 14:31:09;;;;;;;66.25;44.05;;;;;;;;;;5067023;28;20420;-91
2022/12/14 14:33:41;;;;;;;63.20;43.67;;;;;;;;;;5066804;28;20462;-92
2022/12/14 14:36:47;;;;;;;67.95;45.00;;;;;;;;;;5077135;28;20385;-92
2022/12/14 14:42:23;;;;;;;53.45;38.38;;;;;;;;;;5061801;28;25186;-90
2022/12/14 14:44:58;;;;;;;52.13;38.03;;;;;;;;;;5051598;28;20375;-90
2022/12/14 14:47:28;;;;;;;50.05;37.00;;;;;;;;;;5057565;28;20794;-91
2022/12/14 14:50:03;;;;;;;47.75;35.25;;;;;;;;;;5051809;28;20423;-90
2022/12/14 14:52:38;;;;;;;48.78;35.47;;;;;;;;;;5058900;28;20387;-92
2022/12/14 14:55:22;;;;;;;46.17;34.53;;;;;;;;;;5064217;28;20393;-90
2022/12/14 14:58:06;;;;;;;56.13;37.05;;;;;;;;;;5072894;28;25087;-89
2022/12/14 15:00:39;;;;;;;57.25;39.75;;;;;;;;;;5072941;28;20773;-90
2022/12/14 15:03:07;;;;;;;56.80;40.20;;;;;;;;;;5073930;28;20382;-93
2022/12/14 15:05:34;;;;;;;62.33;42.33;;;;;;;;;;5081438;28;20895;-92
2022/12/14 15:08:00;;;;;;;57.17;39.17;;;;;;;;;;5070474;28;20391;-92
2022/12/14 15:34:56;;;;;;;103.10;53.38;;;;;;;;;;6119844;23;20384;-89
2022/12/14 15:37:36;;;;;;;110.30;56.67;;;;;;;;;;5075243;28;20377;-89
2022/12/14 15:40:06;;;;;;;100.95;55.08;;;;;;;;;;5092079;28;20874;-89
2022/12/14 15:43:17;;;;;;;;;;;;;;;;;;;;;
2022/12/14 15:46:04;;;;;;;;;;;;;;;;;;;;;
2022/12/14 15:48:41;;;;;;;89.00;49.90;;;;;;;;;;5060541;28;20407;-90
2022/12/14 15:54:15;;;;;;;89.07;49.97;;;;;;;;;;5092886;28;20989;-89
2022/12/14 15:56:52;;;;;;;85.47;49.20;;;;;;;;;;5092402;28;20417;-90
2022/12/14 15:59:23;;;;;;;95.20;51.45;;;;;;;;;;5087396;28;20395;-89
2022/12/14 16:01:52;;;;;;;105.28;53.20;;;;;;;;;;5083779;28;20382;-90
2022/12/14 16:04:26;;;;;;;105.40;54.27;;;;;;;;;;5070194;28;20850;-89
2022/12/14 16:07:04;;;;;;;109.53;55.42;;;;;;;;;;5083423;28;20870;-90
2022/12/14 16:09:41;;;;;;;102.45;53.50;;;;;;;;;;5072579;28;20406;-91
2022/12/14 16:12:13;;;;;;;96.78;51.33;;;;;;;;;;5075594;28;20886;-91
2022/12/14 16:15:11;;;;;;;94.53;50.07;;;;;;;;;;5063632;28;20459;-90
2022/12/14 16:17:43;;;;;;;88.35;48.72;;;;;;;;;;5008920;28;20389;-89
2022/12/14 16:20:30;;;;;;;90.17;47.27;;;;;;;;;;5020778;28;20816;-91
2022/12/14 16:23:22;;;;;;;92.90;49.42;;;;;;;;;;5019424;28;20387;-90
2022/12/14 16:26:01;;;;;;;92.65;47.70;;;;;;;;;;4967997;28;20399;-91
2022/12/14 16:31:41;;;;;;;88.40;45.97;;;;;;;;;;5004436;28;20449;-88
2022/12/14 16:34:52;;;;;;;87.53;45.65;;;;;;;;;;5004244;28;20406;-92
2022/12/14 16:37:23;;;;;;;81.60;42.57;;;;;;;;;;5008452;28;25118;-91
2022/12/14 17:12:28;;;;;;;50.40;37.25;;;;;;;;;;5515023;22;20432;-93
2022/12/14 17:14:54;;;;;;;53.65;38.15;;;;;;;;;;5043781;28;20744;-94